Accueil
METAR-TAF:

METAR-TAF

Aéroports :

Dübendorf, Suisse

latitude: 47-23-55N, longitude: 8-38-53E, altitude: 448 m

Observation

Le bulletin a été fait il y a 38 minutes, à 10:50 UTC
Vent 3 kt de nord/nord-est, variant entre nord-ouest et est/nord-est
Température 27°C
Humidité 54%
Pression 1012 hPa
Visibilité 10 km ou plus
Quelques nuages à une hauteur de 14000 ft

METAR: LSMD 301050Z AUTO 02003KT 320V070 9999NDV FEW140 27/17 Q1012 RMK

Heure: 13:28 (11:28 UTC)


TAF: absent

Observations et prévisions météorologiques de plus de 4000 aéroports (messages METAR et TAF).

Les stations disponibles sont représentées par des disques jaunes et rouges sur la carte.

Passer la souris dessus pour voir le nom de la station.

Cliquer dessus pour voir les observations et prévisions météorologiques.

Pour changer de carte: cliquez sur les boutons verts avec une croix noire pour zoomer, sur le bouton vert avec un tiret pour effectuer un zoom arrière, ou sur les flèches vertes pour les cartes adjacentes.


METAR-TAF: